Time;durP1;ratioP1;P1;durP2;ratioP2;P2;SDS_P1;SDS_P2;PMS_P1;PMS_P2;Temp;Humidity;BMP_temperature;BMP_pressure;BME280_temperature;BME280_humidity;BME280_pressure;Samples;Min_cycle;Max_cycle;Signal;HPM_P1;HPM_P2
2022/04/05 00:01:28;;;;;;;7.85;5.47;;;6.30;99.90;;;;;;12457846;28;20462;-35
2022/04/05 00:07:54;;;;;;;8.30;5.40;;;6.30;99.90;;;;;;12461651;28;20084;-36
2022/04/05 00:14:01;;;;;;;6.72;4.57;;;6.30;99.90;;;;;;12455453;28;20045;-40
2022/04/05 00:20:14;;;;;;;7.70;5.22;;;6.30;99.90;;;;;;12466214;28;20204;-36
2022/04/05 00:26:25;;;;;;;8.55;5.20;;;6.30;99.90;;;;;;12408425;28;20050;-35
2022/04/05 00:32:51;;;;;;;10.45;5.20;;;6.20;99.90;;;;;;12432422;28;20042;-40
2022/04/05 00:39:01;;;;;;;7.70;5.60;;;6.20;99.90;;;;;;12472513;28;20053;-39
2022/04/05 00:45:20;;;;;;;7.95;5.22;;;6.20;99.90;;;;;;12467077;28;20057;-36
2022/04/05 00:51:44;;;;;;;7.43;5.40;;;6.20;99.90;;;;;;12455763;28;20140;-39
2022/04/05 00:58:02;;;;;;;6.20;3.88;;;6.20;99.90;;;;;;12456207;28;20049;-39
2022/04/05 01:04:22;;;;;;;6.13;4.50;;;6.20;99.90;;;;;;12456209;28;20139;-35
2022/04/05 01:10:38;;;;;;;6.18;3.20;;;6.20;99.90;;;;;;12447034;28;20525;-39
2022/04/05 01:16:51;;;;;;;5.05;2.28;;;6.10;99.90;;;;;;12438267;28;20450;-35
2022/04/05 01:23:09;;;;;;;4.25;1.92;;;6.10;99.90;;;;;;12448791;28;20445;-35
2022/04/05 01:29:22;;;;;;;4.85;1.83;;;6.10;99.90;;;;;;12468579;28;20066;-39
2022/04/05 01:35:34;;;;;;;3.78;1.80;;;6.10;99.90;;;;;;12454635;28;20046;-35
2022/04/05 01:42:17;;;;;;;3.30;1.80;;;6.00;99.90;;;;;;12468214;28;20133;-35
2022/04/05 01:48:41;;;;;;;2.42;1.50;;;6.10;99.90;;;;;;12466286;28;20543;-35
2022/04/05 01:54:55;;;;;;;2.95;1.50;;;6.00;99.90;;;;;;12469094;28;20525;-36
2022/04/05 02:01:16;;;;;;;3.13;1.70;;;6.00;99.90;;;;;;12444849;28;20077;-36
2022/04/05 02:07:34;;;;;;;2.83;1.60;;;6.00;99.90;;;;;;12463420;28;20045;-40
2022/04/05 02:13:52;;;;;;;3.78;1.90;;;5.90;99.90;;;;;;12447613;28;20046;-38
2022/04/05 02:20:18;;;;;;;3.83;2.08;;;5.90;99.90;;;;;;12450771;28;20054;-35
2022/04/05 02:26:39;;;;;;;;;;;5.80;99.90;;;;;;12446511;28;20114;-35
2022/04/05 02:32:51;;;;;;;4.53;2.55;;;5.90;99.90;;;;;;12455069;28;19932;-36
2022/04/05 02:39:06;;;;;;;4.80;2.72;;;5.90;99.90;;;;;;12462859;28;20102;-35
2022/04/05 02:45:30;;;;;;;4.45;2.60;;;5.90;99.90;;;;;;12449266;28;20502;-39
2022/04/05 02:51:48;;;;;;;2.90;1.97;;;5.90;99.90;;;;;;12456438;28;20049;-35
2022/04/05 02:58:07;;;;;;;4.47;2.38;;;6.00;99.90;;;;;;12461732;28;20089;-36
2022/04/05 03:04:19;;;;;;;6.35;2.50;;;5.90;99.90;;;;;;12449485;28;20157;-36
2022/04/05 03:10:35;;;;;;;3.90;2.40;;;5.90;99.90;;;;;;12454608;28;20102;-39
2022/04/05 03:16:50;;;;;;;5.53;3.10;;;5.90;99.90;;;;;;12459273;28;20061;-39
2022/04/05 03:23:12;;;;;;;9.13;4.47;;;6.00;99.90;;;;;;12459076;28;20064;-36
2022/04/05 03:29:31;;;;;;;4.75;3.72;;;6.00;99.90;;;;;;12453734;28;20257;-36
2022/04/05 03:35:51;;;;;;;6.53;4.88;;;6.00;99.90;;;;;;12424355;28;20426;-40
2022/04/05 03:42:11;;;;;;;6.22;2.72;;;6.00;99.90;;;;;;12446447;28;20510;-36
2022/04/05 03:48:30;;;;;;;5.13;2.78;;;6.00;99.90;;;;;;12453544;28;20068;-39
2022/04/05 03:54:44;;;;;;;6.00;3.92;;;6.00;99.90;;;;;;12439445;28;20510;-35
2022/04/05 04:00:56;;;;;;;5.97;3.30;;;5.90;99.90;;;;;;12437866;28;20609;-35
2022/04/05 04:07:05;;;;;;;4.45;2.97;;;6.00;99.90;;;;;;12453887;28;20061;-40
2022/04/05 04:13:14;;;;;;;7.50;3.08;;;5.90;99.90;;;;;;12444762;28;20050;-41
2022/04/05 04:19:41;;;;;;;5.20;3.25;;;5.90;99.90;;;;;;12455744;28;20088;-38
2022/04/05 04:25:56;;;;;;;4.72;3.13;;;5.90;99.90;;;;;;12445221;28;20045;-35
2022/04/05 04:32:10;;;;;;;6.45;3.30;;;5.90;99.90;;;;;;12424774;28;20046;-40
2022/04/05 04:38:26;;;;;;;5.90;3.60;;;5.90;99.90;;;;;;12460855;28;20077;-35
2022/04/05 04:44:45;;;;;;;5.57;3.10;;;5.90;99.90;;;;;;12456072;28;20559;-35
2022/04/05 04:51:12;;;;;;;7.03;3.47;;;5.90;99.90;;;;;;12462303;28;20053;-40
2022/04/05 04:57:34;;;;;;;7.93;3.70;;;5.90;99.90;;;;;;12462313;28;20050;-39
2022/04/05 05:03:47;;;;;;;5.22;3.28;;;5.90;99.90;;;;;;12460720;28;20138;-35
2022/04/05 05:10:00;;;;;;;5.22;3.60;;;5.90;99.90;;;;;;12444340;28;20050;-39
2022/04/05 05:16:03;;;;;;;8.50;3.47;;;5.90;99.90;;;;;;12460254;28;20065;-36
2022/04/05 05:22:10;;;;;;;6.93;3.13;;;5.90;99.90;;;;;;12463107;28;20517;-36
2022/04/05 05:28:28;;;;;;;5.32;3.40;;;5.90;99.90;;;;;;12463405;28;20054;-40
2022/04/05 05:34:47;;;;;;;10.93;3.70;;;5.90;99.90;;;;;;12456966;28;20061;-36
2022/04/05 05:40:58;;;;;;;8.57;3.53;;;6.00;99.90;;;;;;12454329;28;20060;-40
2022/04/05 05:47:13;;;;;;;6.93;3.83;;;6.00;99.90;;;;;;12457593;28;20054;-40
2022/04/05 05:53:22;;;;;;;6.40;3.90;;;6.00;99.90;;;;;;12425785;28;20084;-35
2022/04/05 05:59:29;;;;;;;9.02;3.67;;;6.00;99.90;;;;;;12457447;28;20065;-35
2022/04/05 06:05:45;;;;;;;11.57;5.82;;;6.10;99.90;;;;;;12421644;28;20041;-39
2022/04/05 06:12:00;;;;;;;9.10;3.95;;;6.00;99.90;;;;;;12424310;28;20050;-42
2022/04/05 06:18:14;;;;;;;7.70;3.95;;;6.10;99.90;;;;;;12435109;28;20068;-40
2022/04/05 06:24:23;;;;;;;8.77;3.88;;;6.10;99.90;;;;;;12447740;28;20058;-35
2022/04/05 06:30:26;;;;;;;10.88;3.75;;;6.20;99.90;;;;;;12452001;28;20382;-37
2022/04/05 06:36:28;;;;;;;7.45;4.22;;;6.20;99.90;;;;;;12450990;28;20057;-35
2022/04/05 06:42:31;;;;;;;6.75;3.20;;;6.30;99.90;;;;;;12451867;28;20478;-40
2022/04/05 06:48:33;;;;;;;5.00;3.08;;;6.40;99.90;;;;;;12445149;28;20126;-36
2022/04/05 06:54:35;;;;;;;9.07;3.60;;;6.50;99.90;;;;;;12443694;28;20049;-36
2022/04/05 07:00:38;;;;;;;8.90;3.67;;;6.60;99.90;;;;;;12446632;28;20108;-41
2022/04/05 07:06:40;;;;;;;8.77;3.63;;;6.60;99.90;;;;;;12448214;28;20057;-40
2022/04/05 07:12:43;;;;;;;8.40;3.90;;;6.70;99.90;;;;;;12439696;28;20049;-40
2022/04/05 07:18:45;;;;;;;7.75;4.30;;;6.80;99.90;;;;;;12447236;28;20093;-37
2022/04/05 07:24:47;;;;;;;6.40;3.63;;;6.90;99.90;;;;;;12443410;28;20049;-36
2022/04/05 07:30:49;;;;;;;9.82;4.07;;;7.00;99.90;;;;;;12427950;28;20080;-40
2022/04/05 07:36:52;;;;;;;9.10;3.80;;;7.10;99.90;;;;;;12445023;28;20058;-37
2022/04/05 07:42:54;;;;;;;7.22;4.10;;;7.10;99.90;;;;;;12440513;28;20045;-40
2022/04/05 07:49:04;;;;;;;7.55;3.78;;;7.10;99.90;;;;;;12452271;28;20069;-40
2022/04/05 07:55:15;;;;;;;6.22;4.05;;;7.20;99.90;;;;;;12451686;28;20118;-39
2022/04/05 08:01:23;;;;;;;7.63;3.75;;;7.30;99.90;;;;;;12447993;28;20391;-41
2022/04/05 08:07:38;;;;;;;11.32;4.43;;;7.30;99.90;;;;;;12445482;28;20053;-36
2022/04/05 08:13:43;;;;;;;5.88;3.30;;;7.30;99.90;;;;;;12439516;28;20148;-37
2022/04/05 08:19:46;;;;;;;7.35;3.53;;;7.30;99.90;;;;;;12433109;28;20157;-40
2022/04/05 08:25:48;;;;;;;7.82;3.80;;;7.30;99.90;;;;;;12436265;28;20046;-42
2022/04/05 08:31:50;;;;;;;8.50;2.75;;;7.30;99.90;;;;;;12437589;28;20050;-40
2022/04/05 08:37:56;;;;;;;9.25;3.17;;;7.40;99.90;;;;;;12453216;28;20054;-37
2022/04/05 08:44:01;;;;;;;8.35;2.90;;;7.50;99.90;;;;;;12450238;28;20149;-37
2022/04/05 08:50:04;;;;;;;7.68;2.92;;;7.40;99.90;;;;;;12448701;28;20498;-36
2022/04/05 08:56:06;;;;;;;7.18;2.88;;;7.50;99.90;;;;;;12450677;28;20057;-41
2022/04/05 09:02:09;;;;;;;6.05;2.72;;;7.60;99.90;;;;;;12450649;28;20172;-35
2022/04/05 09:08:11;;;;;;;4.07;2.28;;;7.80;99.90;;;;;;12453568;28;20799;-40
2022/04/05 09:14:14;;;;;;;8.00;2.63;;;7.80;99.90;;;;;;12446589;28;20084;-40
2022/04/05 09:20:18;;;;;;;6.90;2.38;;;7.90;99.90;;;;;;12449135;28;20057;-40
2022/04/05 09:26:21;;;;;;;5.35;2.60;;;7.90;99.90;;;;;;12452592;28;20073;-36
2022/04/05 09:32:40;;;;;;;6.93;2.50;;;7.90;99.90;;;;;;12449157;28;20160;-40
2022/04/05 09:38:44;;;;;;;7.00;3.00;;;8.00;99.90;;;;;;12450535;28;20418;-40
2022/04/05 09:44:46;;;;;;;6.57;2.80;;;8.10;99.90;;;;;;12446080;28;20054;-40
2022/04/05 09:51:10;;;;;;;5.82;2.55;;;8.20;99.90;;;;;;12444981;28;20505;-41
2022/04/05 09:57:12;;;;;;;5.45;2.47;;;8.00;99.90;;;;;;12447091;28;20498;-37
2022/04/05 10:03:18;;;;;;;4.68;2.85;;;8.00;99.90;;;;;;12452456;28;20132;-39
2022/04/05 10:09:22;;;;;;;5.88;3.22;;;7.80;99.90;;;;;;12444267;28;20466;-36
2022/04/05 10:15:27;;;;;;;5.57;3.13;;;7.90;99.90;;;;;;12452963;28;20140;-36
2022/04/05 10:21:34;;;;;;;3.97;2.75;;;8.20;99.90;;;;;;12450660;28;20053;-40
2022/04/05 10:27:37;;;;;;;6.80;2.90;;;8.30;99.90;;;;;;12450278;28;20053;-40
2022/04/05 10:34:00;;;;;;;10.88;3.90;;;8.10;99.90;;;;;;12446841;28;20050;-36
2022/04/05 10:40:03;;;;;;;5.28;3.15;;;8.00;99.90;;;;;;12443875;28;20042;-40
2022/04/05 10:46:06;;;;;;;5.63;3.45;;;8.00;99.90;;;;;;12444403;28;20049;-36
2022/04/05 10:52:15;;;;;;;4.30;3.00;;;8.10;99.90;;;;;;12440023;28;20052;-41
2022/04/05 10:58:17;;;;;;;3.40;2.33;;;8.30;99.90;;;;;;12440495;28;20119;-38
2022/04/05 11:04:31;;;;;;;4.07;2.22;;;8.40;99.90;;;;;;12437938;28;20056;-39
2022/04/05 11:10:37;;;;;;;2.60;1.83;;;8.50;99.90;;;;;;12443908;28;20050;-36
2022/04/05 11:16:44;;;;;;;3.13;2.20;;;8.40;99.90;;;;;;12450740;28;20065;-35
2022/04/05 11:23:00;;;;;;;3.92;2.70;;;8.40;99.90;;;;;;12450441;28;20529;-37
2022/04/05 11:29:20;;;;;;;3.90;2.80;;;8.40;99.90;;;;;;12446053;28;20057;-41
2022/04/05 11:35:26;;;;;;;3.05;2.30;;;8.40;99.90;;;;;;12434814;28;20053;-39
2022/04/05 11:41:30;;;;;;;4.03;2.60;;;8.50;99.90;;;;;;12447066;28;20173;-40
2022/04/05 11:47:34;;;;;;;4.25;2.80;;;8.50;99.90;;;;;;12450718;28;20050;-36
2022/04/05 11:53:50;;;;;;;3.63;2.67;;;8.40;99.90;;;;;;12447514;28;20060;-37
2022/04/05 12:00:10;;;;;;;3.67;2.35;;;8.50;99.90;;;;;;12459731;28;20171;-36
2022/04/05 12:06:23;;;;;;;3.95;2.47;;;8.60;99.90;;;;;;12462896;28;20058;-40
2022/04/05 12:12:32;;;;;;;3.17;2.33;;;8.60;99.90;;;;;;12437776;28;20049;-42
2022/04/05 12:18:43;;;;;;;4.72;3.05;;;8.80;99.90;;;;;;12469339;28;20525;-37
2022/04/05 12:24:55;;;;;;;4.57;3.30;;;9.20;99.90;;;;;;12459945;28;20058;-40
2022/04/05 12:31:10;;;;;;;6.60;3.95;;;9.50;99.90;;;;;;12471124;28;20053;-41
2022/04/05 12:37:20;;;;;;;6.05;4.13;;;9.50;99.90;;;;;;12468477;28;20095;-40
2022/04/05 12:43:30;;;;;;;5.30;3.88;;;9.90;99.90;;;;;;12459917;28;20079;-36
2022/04/05 12:49:39;;;;;;;8.23;4.55;;;10.00;99.90;;;;;;12464842;28;20134;-37
2022/04/05 12:56:02;;;;;;;8.00;4.82;;;9.80;99.90;;;;;;12448002;28;20125;-41
2022/04/05 13:02:22;;;;;;;6.03;4.65;;;10.00;99.90;;;;;;12455031;28;20049;-41
2022/04/05 13:08:41;;;;;;;6.82;4.38;;;10.20;99.90;;;;;;12466864;28;20060;-37
2022/04/05 13:15:12;;;;;;;6.85;4.72;;;10.40;99.90;;;;;;12450894;28;20772;-36
2022/04/05 13:21:28;;;;;;;8.00;4.70;;;10.30;99.90;;;;;;12465395;28;20065;-37
2022/04/05 13:28:01;;;;;;;7.25;4.75;;;10.40;99.90;;;;;;12471059;28;20049;-36
2022/04/05 13:34:25;;;;;;;6.45;4.55;;;10.60;99.90;;;;;;12455732;28;20583;-41
2022/04/05 13:40:38;;;;;;;6.70;5.28;;;11.10;99.90;;;;;;12450630;28;20057;-41
2022/04/05 13:47:01;;;;;;;8.18;5.05;;;11.10;99.90;;;;;;12451478;28;20107;-40
2022/04/05 13:53:13;;;;;;;8.00;4.13;;;11.10;99.90;;;;;;12448021;28;20056;-36
2022/04/05 13:59:20;;;;;;;9.18;5.32;;;11.00;99.90;;;;;;12461056;28;20058;-36
2022/04/05 14:05:34;;;;;;;8.90;4.95;;;11.00;99.90;;;;;;12454984;28;20058;-42
2022/04/05 14:11:47;;;;;;;5.97;3.43;;;11.00;99.90;;;;;;12467009;28;20193;-37
2022/04/05 14:18:10;;;;;;;5.78;3.10;;;11.10;99.90;;;;;;12460462;28;20061;-37
2022/04/05 14:24:22;;;;;;;3.95;2.50;;;11.10;99.90;;;;;;12452933;28;20114;-36
2022/04/05 14:30:37;;;;;;;3.90;2.60;;;11.20;99.90;;;;;;12462205;28;20054;-41
2022/04/05 14:36:52;;;;;;;3.38;2.28;;;11.70;99.90;;;;;;12466775;28;20046;-41
2022/04/05 14:43:14;;;;;;;3.80;2.47;;;12.00;99.90;;;;;;12432354;28;20057;-41
2022/04/05 14:49:27;;;;;;;4.68;2.58;;;11.80;99.90;;;;;;12461136;28;20057;-37
2022/04/05 14:55:47;;;;;;;4.65;2.47;;;11.60;99.90;;;;;;12418083;28;20037;-40
2022/04/05 15:02:00;;;;;;;4.85;2.50;;;11.40;99.90;;;;;;12459530;28;20078;-40
2022/04/05 15:08:34;;;;;;;4.03;2.60;;;11.30;99.90;;;;;;12462779;28;20084;-43
2022/04/05 15:14:52;;;;;;;4.25;3.00;;;11.00;99.90;;;;;;12435425;28;20179;-39
2022/04/05 15:21:01;;;;;;;6.45;3.45;;;10.50;99.90;;;;;;12461505;28;20478;-36
2022/04/05 15:27:11;;;;;;;6.60;4.00;;;10.20;99.90;;;;;;12458437;28;20065;-37
2022/04/05 15:33:24;;;;;;;6.15;4.20;;;10.10;99.90;;;;;;12455744;28;20050;-37
2022/04/05 15:39:45;;;;;;;6.55;4.57;;;10.00;99.90;;;;;;12461523;28;20490;-37
2022/04/05 15:46:09;;;;;;;6.93;5.13;;;10.10;99.90;;;;;;12449275;28;20050;-36
2022/04/05 15:52:19;;;;;;;7.35;5.28;;;10.00;99.90;;;;;;12440621;28;20512;-35
2022/04/05 15:58:27;;;;;;;7.38;5.53;;;10.00;99.90;;;;;;12460689;28;20045;-39
2022/04/05 16:04:38;;;;;;;5.78;4.82;;;10.20;99.90;;;;;;12428898;28;20045;-40
2022/04/05 16:10:54;;;;;;;7.15;4.70;;;10.30;99.90;;;;;;12458834;28;20058;-35
2022/04/05 16:17:10;;;;;;;7.75;5.30;;;10.40;99.90;;;;;;12464359;28;20053;-39
2022/04/05 16:23:23;;;;;;;7.45;4.82;;;10.30;99.90;;;;;;12425798;28;20055;-36
2022/04/05 16:29:35;;;;;;;5.68;4.53;;;10.40;99.90;;;;;;12461126;28;20060;-35
2022/04/05 16:35:50;;;;;;;6.50;4.53;;;10.40;99.90;;;;;;12446501;28;20064;-35
2022/04/05 16:42:02;;;;;;;5.18;3.83;;;10.40;99.90;;;;;;12459211;28;20054;-39
2022/04/05 16:48:13;;;;;;;5.10;4.35;;;10.30;99.90;;;;;;12455504;28;20137;-36
2022/04/05 16:54:35;;;;;;;4.70;3.08;;;10.20;99.90;;;;;;12463510;28;20088;-36
2022/04/05 17:00:48;;;;;;;5.40;3.50;;;10.20;99.90;;;;;;12469771;28;20049;-39
2022/04/05 17:07:09;;;;;;;5.55;3.67;;;10.10;99.90;;;;;;12466582;28;20042;-39
2022/04/05 17:13:17;;;;;;;5.55;3.40;;;10.10;99.90;;;;;;12440337;28;20747;-39
2022/04/05 17:19:38;;;;;;;5.13;3.60;;;10.00;99.90;;;;;;12461825;28;20472;-35
2022/04/05 17:25:56;;;;;;;4.97;3.60;;;10.00;99.90;;;;;;12465753;28;20060;-36
2022/04/05 17:32:12;;;;;;;6.18;3.30;;;9.90;99.90;;;;;;12455438;28;20186;-39
2022/04/05 17:38:23;;;;;;;5.13;3.55;;;9.90;99.90;;;;;;12466902;28;20069;-37
2022/04/05 17:44:36;;;;;;;5.68;3.65;;;9.80;99.90;;;;;;12455385;28;20417;-36
2022/04/05 17:50:46;;;;;;;5.18;3.45;;;9.70;99.90;;;;;;12462303;28;20471;-35
2022/04/05 17:56:57;;;;;;;5.70;3.30;;;9.70;99.90;;;;;;12466276;28;20461;-37
2022/04/05 18:03:20;;;;;;;4.82;3.47;;;9.60;99.90;;;;;;12458699;28;20077;-39
2022/04/05 18:09:35;;;;;;;5.15;3.45;;;9.60;99.90;;;;;;12459913;28;20091;-36
2022/04/05 18:15:48;;;;;;;4.97;3.53;;;9.60;99.90;;;;;;12427305;28;20058;-40
2022/04/05 18:22:14;;;;;;;6.22;3.75;;;9.60;99.90;;;;;;12463299;28;20414;-39
2022/04/05 18:28:23;;;;;;;6.93;3.42;;;9.60;99.90;;;;;;12461976;28;20502;-37
2022/04/05 18:34:43;;;;;;;4.95;3.38;;;9.60;99.90;;;;;;12453168;28;20057;-36
2022/04/05 18:40:56;;;;;;;5.30;3.80;;;9.60;99.90;;;;;;12451800;28;20076;-37
2022/04/05 18:47:28;;;;;;;5.95;4.18;;;9.60;99.90;;;;;;12454297;28;20112;-36
2022/04/05 18:54:01;;;;;;;5.45;3.95;;;9.50;99.90;;;;;;12443769;28;20058;-37
2022/04/05 19:00:09;;;;;;;6.63;4.10;;;9.50;99.90;;;;;;12451206;28;20493;-35
2022/04/05 19:06:29;;;;;;;6.70;4.55;;;9.50;99.90;;;;;;12448665;28;20144;-41
2022/04/05 19:12:43;;;;;;;6.22;4.35;;;9.40;99.90;;;;;;12455702;28;20168;-36
2022/04/05 19:19:05;;;;;;;8.48;5.35;;;9.40;99.90;;;;;;12440536;28;20054;-40
2022/04/05 19:25:21;;;;;;;7.57;5.47;;;9.30;99.90;;;;;;12451865;28;20173;-41
2022/04/05 19:31:45;;;;;;;7.78;6.13;;;9.30;99.90;;;;;;12424475;28;20536;-35
2022/04/05 19:38:02;;;;;;;9.98;6.88;;;9.20;99.90;;;;;;12455697;28;20084;-36
2022/04/05 19:44:16;;;;;;;9.18;7.00;;;9.20;99.90;;;;;;12447209;28;20092;-37
2022/04/05 19:50:38;;;;;;;9.90;7.55;;;9.20;99.90;;;;;;12456736;28;20065;-37
2022/04/05 19:57:05;;;;;;;8.65;7.15;;;9.20;99.90;;;;;;12460596;28;20073;-36
2022/04/05 20:03:37;;;;;;;11.13;8.33;;;9.20;99.90;;;;;;12456420;28;20561;-40
2022/04/05 20:09:59;;;;;;;10.55;7.28;;;9.20;99.90;;;;;;12457207;28;20411;-41
2022/04/05 20:22:59;;;;;;;10.68;7.22;;;9.20;99.90;;;;;;12354848;28;20082;-39
2022/04/05 20:29:23;;;;;;;10.98;8.25;;;9.20;99.90;;;;;;12371256;28;20146;-36
2022/04/05 20:35:37;;;;;;;12.95;9.68;;;9.20;99.90;;;;;;12364473;28;20058;-40
2022/04/05 20:41:48;;;;;;;14.93;9.82;;;9.30;99.90;;;;;;12375037;28;20518;-39
2022/04/05 20:47:56;;;;;;;13.88;11.02;;;9.30;99.90;;;;;;12369247;28;20407;-36
2022/04/05 20:54:06;;;;;;;18.02;12.02;;;9.40;99.90;;;;;;12362982;28;20053;-36
2022/04/05 21:00:17;;;;;;;17.20;13.43;;;9.30;99.90;;;;;;12347720;28;20092;-40
2022/04/05 21:06:31;;;;;;;20.05;14.73;;;9.30;99.90;;;;;;12360951;28;20149;-36
2022/04/05 21:12:42;;;;;;;23.00;15.75;;;9.40;99.90;;;;;;12360246;28;20491;-36
2022/04/05 21:18:49;;;;;;;21.98;15.73;;;9.40;99.90;;;;;;12403597;28;20068;-40
2022/04/05 21:24:59;;;;;;;19.85;16.25;;;9.40;99.90;;;;;;12454004;28;20046;-35
2022/04/05 21:31:10;;;;;;;20.27;16.27;;;9.40;99.90;;;;;;12457400;28;20054;-38
2022/04/05 21:37:28;;;;;;;22.60;17.25;;;9.40;99.90;;;;;;12466922;28;20057;-41
2022/04/05 21:43:54;;;;;;;20.85;15.70;;;9.50;99.90;;;;;;12464847;28;20050;-41
2022/04/05 21:50:11;;;;;;;20.65;16.63;;;9.50;99.90;;;;;;12465104;28;20050;-41
2022/04/05 21:56:32;;;;;;;27.60;17.00;;;9.50;99.90;;;;;;12465399;28;20507;-36
2022/04/05 22:02:49;;;;;;;26.40;17.30;;;9.40;99.90;;;;;;12451802;28;20046;-37
2022/04/05 22:09:15;;;;;;;24.60;17.17;;;9.40;99.90;;;;;;12460951;28;20497;-37
2022/04/05 22:15:32;;;;;;;29.08;17.05;;;9.40;99.90;;;;;;12462375;28;20050;-41
2022/04/05 22:21:52;;;;;;;25.00;16.80;;;9.40;99.90;;;;;;12463839;28;20089;-36
2022/04/05 22:28:05;;;;;;;22.20;15.10;;;9.40;99.90;;;;;;12448529;28;20410;-39
2022/04/05 22:34:26;;;;;;;27.45;17.40;;;9.40;99.90;;;;;;12430963;28;20498;-39
2022/04/05 22:40:35;;;;;;;27.50;19.20;;;9.30;99.90;;;;;;12453074;28;20401;-38
2022/04/05 22:46:47;;;;;;;27.50;17.90;;;9.20;99.90;;;;;;12461544;28;20046;-41
2022/04/05 22:53:28;;;;;;;27.65;17.83;;;9.20;99.90;;;;;;12448518;28;20056;-39
2022/04/05 22:59:51;;;;;;;28.38;18.50;;;9.20;99.90;;;;;;12461350;28;20803;-41
2022/04/05 23:06:05;;;;;;;29.92;18.83;;;9.10;99.90;;;;;;12454951;28;20046;-37
2022/04/05 23:12:27;;;;;;;32.03;19.45;;;9.10;99.90;;;;;;12447117;28;20064;-40
2022/04/05 23:18:45;;;;;;;29.55;18.80;;;9.10;99.90;;;;;;12458450;28;20057;-36
2022/04/05 23:25:03;;;;;;;25.67;17.83;;;9.10;99.90;;;;;;12437919;28;20477;-36
2022/04/05 23:31:12;;;;;;;31.63;17.35;;;9.10;99.90;;;;;;12459103;28;20089;-36
2022/04/05 23:37:22;;;;;;;26.90;17.25;;;9.10;99.90;;;;;;12453425;28;20432;-39
2022/04/05 23:43:37;;;;;;;24.42;16.40;;;9.10;99.90;;;;;;12460919;28;20157;-40
2022/04/05 23:49:57;;;;;;;28.33;17.27;;;9.10;99.90;;;;;;12461952;28;20083;-40
2022/04/05 23:56:13;;;;;;;31.88;16.67;;;9.10;99.90;;;;;;12456132;28;20149;-42
